createdAt,value
2022-12-18T00:00:06.823Z,29.22
2022-12-18T00:00:28.669Z,28.89
2022-12-18T00:00:50.601Z,28.99
2022-12-18T00:01:42.065Z,28.46
2022-12-18T00:02:04.993Z,29.08
2022-12-18T00:02:26.924Z,28.86
2022-12-18T00:02:48.893Z,28.71
2022-12-18T00:03:11.271Z,28.88
2022-12-18T00:03:35.139Z,28.68
2022-12-18T00:03:57.622Z,28.91
2022-12-18T00:04:23.815Z,28.93
2022-12-18T00:04:46.294Z,28.93
2022-12-18T00:05:08.643Z,28.85
2022-12-18T00:05:30.508Z,28.60
2022-12-18T00:05:53.747Z,28.74
2022-12-18T00:06:17.288Z,29.28
2022-12-18T00:06:39.162Z,28.92
2022-12-18T00:07:01.002Z,29.35
2022-12-18T00:07:22.832Z,29.58
2022-12-18T00:07:44.619Z,29.21
2022-12-18T00:08:09.322Z,29.19
2022-12-18T00:08:31.397Z,28.75
2022-12-18T00:08:53.720Z,29.02
2022-12-18T00:09:16.499Z,29.07
2022-12-18T00:09:38.402Z,28.52
2022-12-18T00:10:02.414Z,28.67
2022-12-18T00:10:24.277Z,29.02
2022-12-18T00:10:47.060Z,28.77
2022-12-18T00:11:12.638Z,28.16
2022-12-18T00:11:34.461Z,28.61
2022-12-18T00:11:56.365Z,28.93
2022-12-18T00:12:39.868Z,28.55
2022-12-18T00:13:03.901Z,28.97
2022-12-18T00:13:28.682Z,29.03
2022-12-18T00:13:51.330Z,28.57
2022-12-18T00:14:14.768Z,28.82
2022-12-18T00:14:36.596Z,28.88
2022-12-18T00:14:58.507Z,28.31
2022-12-18T00:15:21.138Z,28.10
2022-12-18T00:15:43.041Z,28.60
2022-12-18T00:16:07.709Z,28.87
2022-12-18T00:16:36.453Z,28.91
2022-12-18T00:16:59.572Z,28.79
2022-12-18T00:17:22.402Z,29.14
2022-12-18T00:17:44.179Z,28.58
2022-12-18T00:18:06.989Z,28.08
2022-12-18T00:18:28.821Z,28.72
2022-12-18T00:18:51.278Z,28.70
2022-12-18T00:19:14.808Z,28.65
2022-12-18T00:19:36.618Z,28.41
2022-12-18T00:19:58.421Z,28.53
2022-12-18T00:20:26.801Z,28.60
2022-12-18T00:20:48.646Z,28.40
2022-12-18T00:21:13.303Z,28.36
2022-12-18T00:21:35.200Z,28.21
2022-12-18T00:21:57.039Z,28.37
2022-12-18T00:22:18.788Z,28.29
2022-12-18T11:11:56.831Z,34.24
2022-12-18T11:12:21.340Z,34.09
2022-12-18T11:12:43.876Z,34.07
2022-12-18T11:13:21.863Z,33.77
2022-12-18T11:13:58.902Z,33.67
2022-12-18T11:14:24.188Z,33.47
2022-12-18T11:14:55.017Z,33.76
2022-12-18T11:15:28.942Z,33.54
2022-12-18T11:15:51.551Z,33.25
2022-12-18T11:16:21.036Z,33.19
2022-12-18T11:17:24.353Z,33.15
2022-12-18T11:17:36.735Z,33.10
2022-12-18T11:17:59.447Z,33.34
2022-12-18T11:18:26.637Z,33.25
2022-12-18T11:18:48.594Z,33.17
2022-12-18T11:19:16.838Z,33.17
2022-12-18T11:19:42.273Z,32.88
2022-12-18T11:20:10.682Z,32.96
2022-12-18T11:20:36.765Z,33.29
2022-12-18T11:21:11.282Z,33.54
2022-12-18T11:21:42.499Z,33.08
2022-12-18T11:22:34.903Z,32.92
2022-12-18T11:23:02.739Z,32.70
2022-12-18T11:23:26.553Z,33.00
2022-12-18T11:23:52.274Z,33.25
2022-12-18T11:24:36.672Z,34.22
2022-12-18T11:25:33.208Z,32.41
2022-12-18T11:25:59.174Z,32.27
2022-12-18T11:26:23.015Z,31.89
2022-12-18T11:26:44.895Z,32.14
2022-12-18T11:27:16.937Z,32.06
2022-12-18T11:27:40.993Z,31.41
2022-12-18T11:28:27.102Z,31.54
2022-12-18T11:28:53.354Z,31.58
2022-12-18T11:29:24.998Z,32.02
2022-12-18T11:29:47.017Z,31.90
2022-12-18T11:30:20.972Z,31.61
2022-12-18T11:30:42.837Z,31.24
2022-12-18T11:31:26.760Z,31.65
2022-12-18T11:31:48.622Z,31.12
2022-12-18T11:32:16.464Z,31.62
2022-12-18T11:32:44.492Z,31.54
2022-12-18T11:33:12.260Z,31.11
2022-12-18T11:33:34.670Z,30.96
2022-12-18T11:34:27.991Z,31.45
2022-12-18T11:34:58.810Z,31.43
2022-12-18T11:35:38.455Z,31.75
2022-12-18T11:36:04.952Z,31.59
2022-12-18T11:36:33.495Z,31.42
2022-12-18T11:36:56.104Z,31.10
2022-12-18T11:37:22.298Z,31.36
2022-12-18T11:37:51.558Z,31.57
2022-12-18T11:38:27.074Z,31.11
2022-12-18T11:38:54.306Z,30.96
2022-12-18T11:39:32.694Z,31.58
2022-12-18T11:40:04.230Z,30.84
2022-12-18T11:40:41.136Z,31.03
2022-12-18T11:41:22.113Z,30.94
2022-12-18T11:42:11.463Z,30.93
2022-12-18T11:42:45.416Z,30.69
2022-12-18T11:43:19.307Z,31.12
2022-12-18T11:44:11.773Z,31.23
2022-12-18T11:44:43.954Z,30.65
2022-12-18T11:45:14.851Z,31.39
2022-12-18T11:45:47.032Z,30.86
2022-12-18T11:46:19.552Z,30.96
2022-12-18T11:46:52.314Z,30.05
2022-12-18T11:47:28.198Z,30.52
2022-12-18T11:47:57.024Z,30.68
2022-12-18T11:48:44.977Z,31.19
2022-12-18T11:49:19.882Z,30.98
2022-12-18T11:49:42.753Z,31.08
2022-12-18T11:50:13.017Z,30.83
2022-12-18T11:50:38.219Z,30.96
2022-12-18T11:51:04.259Z,30.27
2022-12-18T11:51:44.434Z,30.48
2022-12-18T11:52:16.896Z,30.84
2022-12-18T11:52:41.808Z,29.91
2022-12-18T11:53:05.867Z,30.00
2022-12-18T11:53:29.252Z,29.98
2022-12-18T11:53:53.522Z,29.95
2022-12-18T11:54:17.202Z,31.19
2022-12-18T11:54:39.039Z,30.65
2022-12-18T11:55:06.316Z,30.27
2022-12-18T11:56:06.181Z,30.51
2022-12-18T11:56:40.512Z,29.76
2022-12-18T11:57:05.248Z,30.44
2022-12-18T11:58:10.850Z,30.33
2022-12-18T11:58:56.220Z,29.89
2022-12-18T11:59:20.873Z,30.08
2022-12-18T11:59:48.331Z,30.21
2022-12-18T12:00:16.172Z,30.00
2022-12-18T12:00:47.260Z,30.37
2022-12-18T12:01:22.116Z,30.29
2022-12-18T12:01:53.167Z,30.51
2022-12-18T12:02:43.899Z,30.75
2022-12-18T12:03:50.164Z,30.64
2022-12-18T12:04:32.136Z,30.68
2022-12-18T12:05:13.031Z,30.32
2022-12-18T12:05:41.194Z,30.24
2022-12-18T12:06:19.832Z,30.32
2022-12-18T12:06:56.439Z,30.44
2022-12-18T12:07:50.572Z,29.93
2022-12-18T12:08:42.916Z,29.83
2022-12-18T12:09:37.254Z,29.92
2022-12-18T12:10:34.339Z,29.63
2022-12-18T12:11:15.140Z,30.02
2022-12-18T12:12:01.434Z,30.08
2022-12-18T12:12:55.097Z,30.00
2022-12-18T12:13:38.177Z,29.96
2022-12-18T12:14:30.303Z,30.33
2022-12-18T12:15:13.458Z,29.87
2022-12-18T12:16:01.592Z,29.84
2022-12-18T12:16:35.571Z,30.00
2022-12-18T12:17:22.653Z,29.93
2022-12-18T12:17:55.731Z,29.80
2022-12-18T12:18:47.566Z,29.78
2022-12-18T12:19:54.156Z,29.86
2022-12-18T12:20:23.912Z,29.72
2022-12-18T12:21:08.124Z,29.77
2022-12-18T12:21:47.735Z,29.97
2022-12-18T12:22:12.093Z,29.91
2022-12-18T12:23:01.371Z,29.47
2022-12-18T12:23:42.550Z,29.70
2022-12-18T12:24:19.967Z,29.71
2022-12-18T12:24:41.762Z,29.40
2022-12-18T12:25:43.011Z,29.91
2022-12-18T12:26:10.393Z,29.54
2022-12-18T12:26:51.494Z,29.58
2022-12-18T12:27:26.296Z,29.67
2022-12-18T12:28:06.509Z,29.43
2022-12-18T12:28:53.279Z,29.74
2022-12-18T12:29:22.901Z,29.49
2022-12-18T12:30:03.017Z,29.49
2022-12-18T12:31:04.503Z,29.50
2022-12-18T12:31:57.936Z,29.40
2022-12-18T12:32:42.392Z,29.41
2022-12-18T12:33:13.904Z,29.42
2022-12-18T12:33:48.436Z,29.13
2022-12-18T12:34:39.231Z,29.07
2022-12-18T12:35:10.192Z,29.29
2022-12-18T12:35:50.524Z,29.21
2022-12-18T12:36:27.305Z,29.13
2022-12-18T12:37:26.733Z,28.81
2022-12-18T12:38:00.154Z,29.34
2022-12-18T12:38:31.903Z,29.33
2022-12-18T12:38:58.964Z,29.23
2022-12-18T12:39:29.564Z,29.16
2022-12-18T12:39:55.999Z,29.08
2022-12-18T12:40:50.319Z,29.15
2022-12-18T12:41:30.978Z,29.07
2022-12-18T12:42:15.151Z,29.41
2022-12-18T12:43:03.593Z,28.82
2022-12-18T12:43:46.131Z,29.05
2022-12-18T12:44:24.617Z,29.07
2022-12-18T12:44:56.224Z,28.93
2022-12-18T12:45:27.937Z,29.04
2022-12-18T12:45:56.795Z,28.73
2022-12-18T12:46:23.915Z,28.65
2022-12-18T12:46:46.302Z,28.71
2022-12-18T12:47:22.434Z,28.90
2022-12-18T12:47:48.074Z,28.68
2022-12-18T12:48:22.098Z,29.33
2022-12-18T12:48:56.912Z,29.02
2022-12-18T12:49:23.316Z,29.25
2022-12-18T12:49:50.824Z,29.39
2022-12-18T12:50:18.753Z,28.82
2022-12-18T12:50:42.454Z,28.08
2022-12-18T12:51:33.655Z,28.82
2022-12-18T12:52:12.101Z,28.79
2022-12-18T12:52:42.475Z,28.73
